Time;durP1;ratioP1;P1;durP2;ratioP2;P2;SDS_P1;SDS_P2;PMS_P1;PMS_P2;Temp;Humidity;BMP_temperature;BMP_pressure;BME280_temperature;BME280_humidity;BME280_pressure;Samples;Min_cycle;Max_cycle;Signal;HPM_P1;HPM_P2
2023/03/23 00:00:12;;;;;;;12.17;8.87;;;11.10;99.90;;;;;;4948056;29;20255;-95
2023/03/23 00:02:39;;;;;;;8.87;5.97;;;11.00;99.90;;;;;;4971415;29;20202;-96
2023/03/23 00:05:07;;;;;;;6.83;5.27;;;11.00;99.90;;;;;;4957230;29;20199;-96
2023/03/23 00:07:35;;;;;;;7.40;5.47;;;10.90;1.00;;;;;;4947174;29;20214;-95
2023/03/23 00:10:03;;;;;;;9.57;5.73;;;10.80;1.00;;;;;;4951234;29;20217;-95
2023/03/23 00:12:33;;;;;;;6.83;5.17;;;10.80;1.00;;;;;;4954281;29;20191;-94
2023/03/23 00:15:01;;;;;;;7.63;5.70;;;10.70;1.00;;;;;;4941756;29;20225;-95
2023/03/23 00:17:29;;;;;;;7.77;5.87;;;10.70;1.00;;;;;;4958428;29;20206;-95
2023/03/23 00:19:56;;;;;;;9.60;6.63;;;10.70;1.00;;;;;;4959577;29;20209;-95
2023/03/23 00:22:24;;;;;;;8.23;5.83;;;10.70;1.00;;;;;;4958283;29;20201;-96
2023/03/23 00:24:52;;;;;;;13.23;7.00;;;10.70;1.00;;;;;;4954121;29;20196;-96
2023/03/23 00:27:21;;;;;;;14.47;8.13;;;10.70;1.00;;;;;;4952901;29;20197;-96
2023/03/23 00:29:52;;;;;;;11.70;7.57;;;10.90;1.00;;;;;;4963900;29;20206;-96
2023/03/23 00:32:20;;;;;;;12.80;7.63;;;10.90;1.00;;;;;;4942511;29;20251;-95
2023/03/23 00:34:49;;;;;;;14.00;7.57;;;11.00;1.00;;;;;;4944005;29;20262;-94
2023/03/23 00:37:17;;;;;;;15.87;8.73;;;11.00;1.00;;;;;;4951086;29;20199;-95
2023/03/23 00:39:45;;;;;;;16.07;9.53;;;11.00;1.00;;;;;;4957357;29;20210;-95
2023/03/23 00:42:13;;;;;;;14.17;8.60;;;11.00;1.00;;;;;;4953308;29;20219;-95
2023/03/23 00:44:40;;;;;;;15.20;9.10;;;11.00;1.00;;;;;;4941083;29;20197;-95
2023/03/23 00:47:09;;;;;;;15.70;8.63;;;11.00;1.00;;;;;;4938025;29;20200;-95
2023/03/23 00:49:37;;;;;;;12.57;7.53;;;11.00;1.00;;;;;;4938370;29;20282;-95
2023/03/23 00:52:06;;;;;;;13.30;7.77;;;11.00;1.00;;;;;;4938254;29;20206;-95
2023/03/23 00:54:33;;;;;;;14.17;8.33;;;11.00;1.00;;;;;;4937794;29;20229;-94
2023/03/23 00:57:00;;;;;;;14.33;7.80;;;11.00;1.00;;;;;;4937972;29;20205;-95
2023/03/23 00:59:27;;;;;;;12.63;7.77;;;10.90;1.00;;;;;;4937863;29;20266;-95
2023/03/23 01:01:54;;;;;;;11.63;7.20;;;10.80;1.00;;;;;;4945026;29;20208;-95
2023/03/23 01:04:22;;;;;;;12.47;6.70;;;10.70;1.00;;;;;;4951315;29;20683;-94
2023/03/23 01:06:51;;;;;;;9.27;6.83;;;10.70;1.00;;;;;;4948027;29;20199;-94
2023/03/23 01:09:20;;;;;;;13.63;7.03;;;10.60;1.00;;;;;;4938640;29;20308;-96
2023/03/23 01:11:49;;;;;;;10.37;6.67;;;10.50;1.00;;;;;;4939066;29;20231;-95
2023/03/23 01:14:19;;;;;;;13.30;6.67;;;10.50;1.00;;;;;;4955701;29;20723;-95
2023/03/23 01:16:46;;;;;;;10.97;6.53;;;10.40;72.50;;;;;;4956801;29;20214;-95
2023/03/23 01:19:13;;;;;;;9.70;6.03;;;10.40;99.90;;;;;;4953850;29;20305;-95
2023/03/23 01:21:41;;;;;;;9.50;5.90;;;10.40;99.90;;;;;;4951966;29;20191;-94
2023/03/23 01:24:08;;;;;;;10.00;6.43;;;10.30;99.90;;;;;;4937280;29;20207;-95
2023/03/23 01:26:35;;;;;;;10.80;6.20;;;10.40;99.90;;;;;;4939262;29;20210;-95
2023/03/23 01:29:02;;;;;;;11.20;5.87;;;10.40;99.90;;;;;;4938045;29;20203;-95
2023/03/23 01:31:29;;;;;;;8.93;5.80;;;10.50;99.90;;;;;;4937415;29;20216;-95
2023/03/23 01:33:56;;;;;;;9.67;6.30;;;10.40;99.90;;;;;;4939325;29;20230;-95
2023/03/23 01:36:26;;;;;;;12.03;5.93;;;10.40;99.90;;;;;;4956370;29;20234;-94
2023/03/23 01:38:54;;;;;;;11.07;6.07;;;10.30;99.90;;;;;;4955571;29;20275;-94
2023/03/23 01:41:22;;;;;;;14.07;6.77;;;10.20;99.90;;;;;;4956372;29;20563;-93
2023/03/23 01:43:57;;;;;;;10.93;6.67;;;10.20;99.90;;;;;;4956271;29;20199;-93
2023/03/23 01:46:26;;;;;;;11.63;6.40;;;10.10;99.90;;;;;;4956502;29;20293;-94
2023/03/23 01:48:53;;;;;;;8.60;6.00;;;10.10;99.90;;;;;;4949349;28;20198;-94
2023/03/23 01:51:22;;;;;;;8.63;5.80;;;10.00;1.00;;;;;;4947350;29;20709;-94
2023/03/23 01:53:52;;;;;;;8.80;6.13;;;10.00;1.00;;;;;;4959372;29;20216;-94
2023/03/23 01:56:25;;;;;;;10.17;6.10;;;10.00;1.00;;;;;;4957223;29;20202;-93
2023/03/23 01:58:53;;;;;;;8.20;5.83;;;9.90;1.00;;;;;;4940467;29;20208;-94
2023/03/23 02:01:24;;;;;;;8.63;6.07;;;9.90;1.00;;;;;;4940505;29;20224;-94
2023/03/23 02:03:55;;;;;;;9.10;6.00;;;9.90;1.00;;;;;;4940993;29;20178;-94
2023/03/23 02:06:23;;;;;;;14.90;7.37;;;9.80;1.00;;;;;;4940435;29;20277;-94
2023/03/23 02:08:51;;;;;;;11.13;6.37;;;9.80;1.00;;;;;;4940355;29;20204;-95
2023/03/23 02:11:22;;;;;;;11.13;6.63;;;9.80;1.00;;;;;;4940365;29;20303;-94
2023/03/23 02:13:50;;;;;;;12.40;7.37;;;9.70;1.00;;;;;;4940256;29;20216;-94
2023/03/23 02:16:27;;;;;;;12.33;7.67;;;9.70;1.00;;;;;;4949829;29;20203;-95
2023/03/23 02:19:16;;;;;;;13.20;6.80;;;9.60;19.60;;;;;;4959046;29;20193;-94
2023/03/23 02:22:07;;;;;;;11.50;6.60;;;9.50;9.90;;;;;;4950387;29;20212;-94
2023/03/23 02:24:52;;;;;;;11.43;6.67;;;9.50;76.40;;;;;;4943697;29;20199;-94
2023/03/23 02:27:56;;;;;;;9.80;6.30;;;9.40;99.90;;;;;;4939969;29;20204;-94
2023/03/23 02:30:44;;;;;;;10.00;6.60;;;9.40;99.90;;;;;;4939660;29;20665;-95
2023/03/23 02:33:39;;;;;;;10.83;6.67;;;9.30;99.90;;;;;;4932248;29;20211;-94
2023/03/23 02:36:13;;;;;;;9.10;6.37;;;9.20;99.90;;;;;;4939973;29;20248;-94
2023/03/23 02:38:50;;;;;;;8.40;6.37;;;9.20;99.90;;;;;;4949544;29;20682;-95
2023/03/23 02:41:20;;;;;;;11.57;7.33;;;9.20;99.90;;;;;;4939936;29;20243;-94
2023/03/23 02:43:48;;;;;;;12.43;7.13;;;9.20;1.00;;;;;;4939788;29;20465;-95
2023/03/23 02:46:16;;;;;;;10.57;6.67;;;9.10;1.00;;;;;;4940057;29;20213;-93
2023/03/23 02:48:48;;;;;;;9.07;6.23;;;9.10;1.00;;;;;;4939961;29;20197;-94
2023/03/23 02:51:16;;;;;;;10.67;6.40;;;9.10;1.00;;;;;;4944678;29;20572;-93
2023/03/23 02:53:45;;;;;;;14.73;7.20;;;9.10;1.00;;;;;;4958433;29;20198;-94
2023/03/23 02:56:14;;;;;;;8.80;6.33;;;9.00;1.00;;;;;;4959313;29;20391;-95
2023/03/23 02:58:42;;;;;;;11.37;6.60;;;9.00;1.00;;;;;;4944875;29;20203;-96
2023/03/23 03:01:36;;;;;;;8.03;6.27;;;9.00;1.00;;;;;;4940312;29;20200;-94
2023/03/23 03:04:08;;;;;;;9.10;6.00;;;9.00;1.00;;;;;;4949911;29;20199;-94
2023/03/23 03:06:42;;;;;;;10.70;6.23;;;9.00;1.00;;;;;;4958262;29;20187;-93
2023/03/23 03:09:17;;;;;;;10.80;6.60;;;9.00;1.00;;;;;;4955177;29;20227;-95
2023/03/23 03:11:49;;;;;;;10.47;5.90;;;9.00;1.00;;;;;;4939942;29;20303;-93
2023/03/23 03:14:23;;;;;;;9.20;5.57;;;8.90;1.00;;;;;;4947255;29;20208;-94
2023/03/23 03:16:59;;;;;;;6.73;5.90;;;9.00;1.00;;;;;;4942182;29;20309;-95
2023/03/23 03:19:31;;;;;;;8.97;5.70;;;8.90;1.00;;;;;;4939268;29;20198;-94
2023/03/23 03:21:59;;;;;;;8.87;5.70;;;9.00;1.00;;;;;;4939866;29;20196;-94
2023/03/23 03:24:29;;;;;;;8.47;5.70;;;9.00;1.00;;;;;;4938995;29;20208;-94
2023/03/23 03:26:59;;;;;;;10.00;5.67;;;8.90;1.00;;;;;;4945177;29;20218;-95
2023/03/23 03:29:30;;;;;;;8.23;5.37;;;8.90;1.00;;;;;;4958557;29;20205;-95
2023/03/23 03:32:00;;;;;;;7.40;4.90;;;9.00;1.00;;;;;;4958000;29;20794;-95
2023/03/23 03:34:31;;;;;;;6.40;4.87;;;9.00;1.00;;;;;;4958232;29;20229;-95
2023/03/23 03:37:00;;;;;;;8.20;5.00;;;9.00;1.00;;;;;;4947379;29;20224;-94
2023/03/23 03:39:28;;;;;;;6.77;4.40;;;9.00;1.00;;;;;;4941015;29;20671;-94
2023/03/23 03:41:56;;;;;;;6.00;4.77;;;9.00;1.00;;;;;;4957991;29;20214;-94
2023/03/23 03:44:23;;;;;;;5.60;4.50;;;9.00;1.00;;;;;;4957553;29;20199;-95
2023/03/23 03:46:49;;;;;;;6.73;4.70;;;9.00;1.00;;;;;;4957954;29;20233;-95
2023/03/23 03:49:16;;;;;;;7.60;4.70;;;9.00;1.00;;;;;;4958157;29;20198;-95
2023/03/23 03:51:44;;;;;;;7.40;4.67;;;9.00;1.00;;;;;;4957149;29;20240;-95
2023/03/23 03:54:11;;;;;;;6.87;4.40;;;9.10;1.00;;;;;;4938749;29;20230;-95
2023/03/23 03:56:40;;;;;;;7.67;4.07;;;9.10;1.00;;;;;;4938864;29;20203;-95
2023/03/23 03:59:07;;;;;;;8.70;4.67;;;9.20;1.00;;;;;;4941669;29;20208;-95
2023/03/23 04:01:35;;;;;;;6.27;4.70;;;9.20;1.00;;;;;;4949626;29;20204;-95
2023/03/23 04:04:01;;;;;;;7.53;4.63;;;9.30;1.00;;;;;;4957807;29;20204;-94
2023/03/23 04:06:28;;;;;;;7.73;4.30;;;9.30;1.00;;;;;;4957163;29;20290;-95
2023/03/23 04:08:58;;;;;;;6.17;4.40;;;9.30;1.00;;;;;;4957527;29;20676;-94
2023/03/23 04:11:26;;;;;;;7.47;4.63;;;9.30;1.00;;;;;;4956709;28;20215;-94
2023/03/23 04:13:53;;;;;;;9.07;4.20;;;9.30;1.00;;;;;;4957403;29;20204;-95
2023/03/23 04:16:20;;;;;;;7.13;4.20;;;9.40;1.00;;;;;;4944496;29;20220;-94
2023/03/23 04:18:47;;;;;;;5.90;4.00;;;9.40;1.00;;;;;;4949223;29;20214;-94
2023/03/23 04:21:15;;;;;;;6.23;4.33;;;9.50;99.90;;;;;;4960859;29;20727;-95
2023/03/23 04:23:42;;;;;;;7.77;4.53;;;9.60;99.90;;;;;;4963107;29;20251;-96
2023/03/23 04:26:12;;;;;;;6.83;4.40;;;9.60;99.90;;;;;;4961146;29;20195;-94
2023/03/23 04:28:40;;;;;;;8.93;4.33;;;9.70;99.90;;;;;;4956974;29;20201;-94
2023/03/23 04:31:08;;;;;;;7.03;4.47;;;9.60;99.90;;;;;;4945166;29;20209;-94
2023/03/23 04:33:36;;;;;;;6.07;4.40;;;9.60;99.90;;;;;;4951948;29;20204;-94
2023/03/23 04:36:06;;;;;;;5.37;4.13;;;9.50;99.90;;;;;;4953857;29;20228;-94
2023/03/23 04:38:34;;;;;;;5.33;4.43;;;9.50;99.90;;;;;;4938091;29;20208;-94
2023/03/23 04:41:01;;;;;;;5.23;4.17;;;9.40;99.90;;;;;;4937628;29;20204;-94
2023/03/23 04:43:30;;;;;;;7.10;4.50;;;9.40;99.90;;;;;;4939297;29;20204;-96
2023/03/23 04:45:58;;;;;;;5.80;4.60;;;9.30;99.90;;;;;;4937857;29;20197;-95
2023/03/23 04:48:25;;;;;;;8.80;4.67;;;9.30;99.90;;;;;;4937436;29;20208;-96
2023/03/23 04:50:52;;;;;;;5.53;4.20;;;9.20;99.90;;;;;;4937783;29;20699;-95
2023/03/23 04:53:19;;;;;;;9.27;6.17;;;9.20;99.90;;;;;;4937572;29;20208;-96
2023/03/23 04:55:48;;;;;;;9.87;5.87;;;9.20;99.90;;;;;;4937500;29;20235;-94
2023/03/23 04:58:17;;;;;;;10.27;6.07;;;9.20;1.00;;;;;;4959260;29;20226;-96
2023/03/23 05:00:49;;;;;;;8.90;5.77;;;9.30;1.00;;;;;;4962982;29;20190;-96
2023/03/23 05:03:16;;;;;;;12.23;7.23;;;9.30;1.00;;;;;;4953851;29;20677;-96
2023/03/23 05:05:46;;;;;;;8.20;5.90;;;9.40;1.00;;;;;;4955634;29;20202;-96
2023/03/23 05:08:13;;;;;;;16.87;9.93;;;9.50;99.90;;;;;;4940967;29;20196;-95
2023/03/23 05:10:40;;;;;;;20.47;11.77;;;9.60;99.90;;;;;;4944622;29;20197;-96
2023/03/23 05:13:07;;;;;;;8.73;5.40;;;9.70;99.90;;;;;;4949078;29;20207;-94
2023/03/23 05:15:34;;;;;;;6.93;5.63;;;9.80;99.90;;;;;;4958090;29;20228;-96
2023/03/23 05:18:03;;;;;;;8.70;4.53;;;9.90;99.90;;;;;;4940125;29;20209;-94
2023/03/23 05:20:30;;;;;;;9.90;4.40;;;9.90;1.00;;;;;;4937602;29;20202;-96
2023/03/23 05:22:57;;;;;;;9.17;5.03;;;10.00;1.00;;;;;;4958059;28;20205;-95
2023/03/23 05:25:24;;;;;;;8.17;4.97;;;10.00;1.00;;;;;;4961894;29;20257;-94
2023/03/23 05:27:52;;;;;;;7.50;4.57;;;10.10;1.00;;;;;;4955209;29;20232;-94
2023/03/23 05:30:20;;;;;;;6.73;3.97;;;10.10;1.00;;;;;;4941138;29;20200;-96
2023/03/23 05:32:50;;;;;;;5.73;4.27;;;10.10;1.00;;;;;;4941983;29;20207;-95
2023/03/23 05:35:20;;;;;;;8.13;4.63;;;10.10;1.00;;;;;;4940682;29;20600;-96
2023/03/23 05:37:47;;;;;;;6.17;4.20;;;10.10;1.00;;;;;;4941754;29;20229;-93
2023/03/23 05:40:14;;;;;;;6.07;4.43;;;10.10;1.00;;;;;;4942682;29;20205;-96
2023/03/23 05:42:42;;;;;;;5.70;3.97;;;10.20;1.00;;;;;;4941607;29;20261;-95
2023/03/23 05:45:11;;;;;;;10.23;5.60;;;10.20;1.00;;;;;;4943661;29;20194;-95
2023/03/23 05:47:39;;;;;;;8.50;5.60;;;10.20;1.00;;;;;;4958202;29;20201;-93
2023/03/23 05:50:08;;;;;;;8.13;5.70;;;10.30;1.00;;;;;;4960121;29;20212;-94
2023/03/23 05:52:38;;;;;;;8.40;5.10;;;10.30;1.00;;;;;;4959652;29;20207;-94
2023/03/23 05:55:07;;;;;;;11.90;5.13;;;10.30;1.00;;;;;;4959444;29;20708;-94
2023/03/23 05:57:35;;;;;;;8.33;5.00;;;10.40;1.00;;;;;;4953448;29;20200;-94
2023/03/23 06:00:13;;;;;;;16.80;4.60;;;10.40;1.00;;;;;;4940365;29;20661;-95
2023/03/23 06:02:40;;;;;;;17.23;7.67;;;10.50;1.00;;;;;;4954222;29;20253;-96
2023/03/23 06:05:08;;;;;;;13.30;7.23;;;10.50;1.00;;;;;;4952110;29;20196;-94
2023/03/23 06:07:37;;;;;;;12.40;5.83;;;10.60;1.00;;;;;;4966517;29;20216;-96
2023/03/23 06:10:05;;;;;;;42.40;21.23;;;10.70;1.00;;;;;;4943026;29;20301;-95
2023/03/23 06:12:31;;;;;;;30.87;21.93;;;10.70;99.90;;;;;;4949261;29;20206;-95
2023/03/23 06:14:58;;;;;;;61.30;34.47;;;10.80;99.90;;;;;;4961550;29;20223;-96
2023/03/23 06:17:26;;;;;;;52.77;30.30;;;10.90;99.90;;;;;;4946896;29;20207;-96
2023/03/23 06:19:52;;;;;;;25.57;18.73;;;11.00;99.90;;;;;;4961794;29;20199;-95
2023/03/23 06:22:20;;;;;;;9.13;5.47;;;11.00;99.90;;;;;;4948174;29;20210;-95
2023/03/23 06:24:48;;;;;;;7.37;4.27;;;11.00;99.90;;;;;;4939828;29;20258;-95
2023/03/23 06:27:16;;;;;;;9.53;5.20;;;11.10;99.90;;;;;;4943857;29;20208;-95
2023/03/23 06:29:43;;;;;;;25.60;6.73;;;11.10;99.90;;;;;;4959104;29;20229;-95
2023/03/23 06:32:12;;;;;;;11.93;8.70;;;11.20;99.90;;;;;;4958594;29;20265;-94
2023/03/23 06:34:40;;;;;;;42.63;16.60;;;11.30;99.90;;;;;;4954170;28;20207;-94
2023/03/23 06:37:07;;;;;;;11.77;4.77;;;11.40;99.90;;;;;;4958703;29;20234;-94
2023/03/23 06:39:34;;;;;;;10.13;4.60;;;11.50;59.20;;;;;;4959014;29;20209;-95
2023/03/23 06:42:02;;;;;;;7.50;4.57;;;11.60;1.00;;;;;;4956086;29;20213;-95
2023/03/23 06:44:29;;;;;;;10.37;6.27;;;11.70;1.00;;;;;;4939504;29;20808;-95
2023/03/23 06:46:56;;;;;;;9.37;5.93;;;11.80;1.00;;;;;;4939673;29;20263;-95
2023/03/23 06:49:23;;;;;;;8.77;5.90;;;11.80;1.00;;;;;;4939740;29;20208;-95
2023/03/23 06:51:50;;;;;;;7.83;5.57;;;11.90;1.00;;;;;;4939362;29;20204;-95
2023/03/23 06:54:16;;;;;;;6.73;4.30;;;11.90;1.00;;;;;;4939199;29;20201;-96
2023/03/23 06:56:43;;;;;;;6.03;4.67;;;12.00;1.00;;;;;;4939324;29;20587;-94
2023/03/23 06:59:12;;;;;;;5.40;3.73;;;12.20;1.00;;;;;;4931702;29;20211;-95
2023/03/23 07:01:39;;;;;;;4.03;3.03;;;12.40;1.00;;;;;;4955046;29;20215;-95
2023/03/23 07:04:06;;;;;;;7.23;3.90;;;12.50;1.00;;;;;;4958473;29;20205;-95
2023/03/23 07:06:32;;;;;;;4.53;3.27;;;12.60;1.00;;;;;;4958238;29;20209;-95
2023/03/23 07:08:59;;;;;;;5.03;3.73;;;12.70;99.90;;;;;;4958364;29;20650;-95
2023/03/23 07:11:26;;;;;;;13.87;8.30;;;12.80;99.90;;;;;;4958376;29;20202;-95
2023/03/23 07:13:53;;;;;;;11.50;7.47;;;12.80;99.90;;;;;;4958037;29;20206;-96
2023/03/23 07:16:22;;;;;;;8.50;3.93;;;12.80;99.90;;;;;;4958146;29;20563;-95
2023/03/23 07:18:49;;;;;;;7.30;3.90;;;12.80;99.90;;;;;;4949143;29;20298;-95
2023/03/23 07:21:16;;;;;;;6.40;4.57;;;12.80;99.90;;;;;;4939862;29;20244;-96
2023/03/23 07:23:46;;;;;;;5.87;3.80;;;12.80;99.90;;;;;;4958045;29;20202;-95
2023/03/23 07:26:13;;;;;;;5.73;3.57;;;12.90;99.90;;;;;;4959109;29;20298;-96
2023/03/23 07:28:40;;;;;;;5.43;3.20;;;12.90;99.90;;;;;;4959409;29;20202;-96
2023/03/23 07:31:08;;;;;;;5.80;3.73;;;12.90;99.90;;;;;;4958121;29;20207;-95
2023/03/23 07:33:37;;;;;;;5.47;3.37;;;13.00;99.90;;;;;;4958252;29;20234;-96
2023/03/23 07:36:05;;;;;;;7.50;4.30;;;13.10;99.90;;;;;;4956354;29;20296;-95
2023/03/23 07:38:32;;;;;;;5.63;3.80;;;13.10;99.90;;;;;;4938420;29;20248;-95
2023/03/23 07:40:58;;;;;;;6.43;4.20;;;13.10;99.90;;;;;;4944603;29;20225;-95
2023/03/23 07:43:26;;;;;;;6.70;3.27;;;13.10;99.90;;;;;;4938568;29;20203;-95
2023/03/23 07:45:53;;;;;;;6.13;3.53;;;13.00;99.90;;;;;;4946473;28;20238;-95
2023/03/23 07:48:20;;;;;;;8.60;4.07;;;12.90;99.90;;;;;;4957595;29;20213;-96
2023/03/23 07:50:48;;;;;;;7.03;3.90;;;12.80;1.00;;;;;;4957676;29;20562;-94
2023/03/23 07:53:15;;;;;;;7.37;4.63;;;12.70;1.00;;;;;;4938164;29;20286;-95
2023/03/23 07:55:42;;;;;;;8.90;4.67;;;12.70;1.00;;;;;;4938269;29;20217;-94
2023/03/23 07:58:09;;;;;;;7.47;4.57;;;12.60;1.00;;;;;;4938167;29;20695;-93
2023/03/23 08:00:36;;;;;;;5.83;3.87;;;12.60;1.00;;;;;;4943400;29;20204;-93
2023/03/23 08:03:05;;;;;;;6.40;4.40;;;12.60;78.50;;;;;;4957170;29;20296;-93
2023/03/23 08:05:33;;;;;;;11.57;5.20;;;12.70;99.90;;;;;;4957125;29;20201;-93
2023/03/23 08:08:02;;;;;;;6.30;4.00;;;12.80;99.90;;;;;;4954630;29;20673;-93
2023/03/23 08:10:29;;;;;;;12.20;7.30;;;12.80;99.90;;;;;;4956940;29;20208;-93
2023/03/23 08:12:59;;;;;;;14.57;8.33;;;12.90;99.90;;;;;;4956776;29;20209;-93
2023/03/23 08:15:27;;;;;;;8.47;4.97;;;12.90;99.90;;;;;;4956716;29;20570;-93
2023/03/23 08:17:54;;;;;;;7.33;5.30;;;13.00;99.90;;;;;;4957095;29;20265;-94
2023/03/23 08:20:22;;;;;;;6.70;5.60;;;13.10;99.90;;;;;;4956892;29;20209;-93
2023/03/23 08:22:52;;;;;;;7.30;5.30;;;13.20;99.90;;;;;;4950129;29;20201;-93
2023/03/23 08:25:21;;;;;;;7.90;5.67;;;13.40;99.90;;;;;;4944146;29;20219;-95
2023/03/23 08:27:48;;;;;;;7.33;4.67;;;13.40;99.90;;;;;;4946097;29;20205;-94
2023/03/23 08:30:19;;;;;;;9.90;5.80;;;13.40;99.90;;;;;;4957095;29;20212;-94
2023/03/23 08:32:46;;;;;;;12.93;8.13;;;13.50;99.90;;;;;;4940300;29;20200;-94
2023/03/23 08:35:14;;;;;;;12.20;7.60;;;13.60;99.90;;;;;;4937213;29;20233;-94
2023/03/23 08:37:42;;;;;;;18.03;13.40;;;13.70;99.90;;;;;;4937084;29;20223;-94
2023/03/23 08:40:14;;;;;;;12.50;9.20;;;13.90;99.90;;;;;;4944224;29;20592;-93
2023/03/23 08:42:44;;;;;;;9.03;7.03;;;14.00;99.90;;;;;;4948115;29;20228;-95
2023/03/23 08:45:14;;;;;;;6.60;5.00;;;14.10;99.90;;;;;;4939706;29;20554;-96
2023/03/23 08:47:42;;;;;;;5.30;3.60;;;14.20;99.90;;;;;;4955699;29;20525;-94
2023/03/23 08:50:12;;;;;;;5.63;3.40;;;14.40;99.90;;;;;;4955919;29;20264;-94
2023/03/23 08:52:39;;;;;;;5.37;3.10;;;14.60;99.90;;;;;;4942081;29;20794;-93
2023/03/23 08:55:08;;;;;;;5.23;3.40;;;14.60;99.90;;;;;;4936778;29;20294;-94
2023/03/23 08:57:36;;;;;;;3.53;3.23;;;14.40;99.90;;;;;;4936166;29;20218;-96
2023/03/23 09:00:13;;;;;;;5.43;3.13;;;14.30;99.90;;;;;;4936324;29;20663;-94
2023/03/23 09:02:40;;;;;;;5.70;3.30;;;14.20;1.00;;;;;;4936688;29;20200;-94
2023/03/23 09:05:09;;;;;;;5.33;3.50;;;14.20;1.00;;;;;;4953486;29;20198;-95
2023/03/23 09:07:36;;;;;;;7.53;3.53;;;14.30;25.50;;;;;;4955750;29;20256;-95
2023/03/23 09:10:03;;;;;;;4.37;2.90;;;14.40;98.40;;;;;;4955673;29;20202;-94
2023/03/23 09:12:30;;;;;;;4.60;3.50;;;14.70;34.80;;;;;;4955607;29;20202;-94
2023/03/23 09:14:57;;;;;;;4.30;2.72;;;14.90;12.20;;;;;;4955820;29;20620;-94
2023/03/23 09:17:26;;;;;;;4.85;3.10;;;15.10;1.00;;;;;;4955329;29;20225;-94
2023/03/23 09:19:53;;;;;;;3.55;2.95;;;15.20;99.90;;;;;;4955111;29;20203;-94
2023/03/23 09:22:23;;;;;;;5.30;3.03;;;15.10;1.00;;;;;;4955377;29;20268;-94
2023/03/23 09:24:51;;;;;;;6.37;3.50;;;14.90;1.00;;;;;;4955901;29;20213;-94
2023/03/23 09:27:19;;;;;;;5.00;3.27;;;14.80;5.00;;;;;;4954667;29;20611;-94
2023/03/23 09:29:48;;;;;;;6.27;3.77;;;14.80;66.50;;;;;;4935876;29;20604;-94
2023/03/23 09:32:15;;;;;;;5.63;3.65;;;14.80;74.40;;;;;;4947783;29;20201;-95
2023/03/23 09:34:45;;;;;;;4.42;3.24;;;14.70;74.80;;;;;;4954093;29;1292182;-84
2023/03/23 09:37:14;;;;;;;5.93;4.33;;;14.70;1.00;;;;;;4948257;29;20222;-94
2023/03/23 09:39:41;;;;;;;7.70;5.50;;;14.70;46.00;;;;;;4936808;29;20207;-94
2023/03/23 09:42:23;;;;;;;7.03;4.50;;;14.70;92.70;;;;;;4936791;29;20210;-94
2023/03/23 09:45:03;;;;;;;9.90;4.63;;;14.70;94.50;;;;;;4936975;29;20193;-95
2023/03/23 09:47:37;;;;;;;9.17;5.70;;;14.60;99.90;;;;;;4936974;29;20187;-94
2023/03/23 09:50:12;;;;;;;9.37;6.00;;;14.60;99.90;;;;;;4955386;29;20215;-94
2023/03/23 09:52:45;;;;;;;7.80;4.68;;;14.50;1.00;;;;;;4955863;29;20676;-95
2023/03/23 09:55:15;;;;;;;6.67;4.20;;;14.60;1.00;;;;;;4956150;29;20629;-95
2023/03/23 09:57:50;;;;;;;5.93;4.27;;;14.50;1.00;;;;;;4955910;29;20221;-95
2023/03/23 10:00:21;;;;;;;7.33;4.50;;;14.50;99.90;;;;;;4956060;29;20189;-95
2023/03/23 10:02:57;;;;;;;7.97;5.10;;;14.50;1.00;;;;;;4956066;29;20325;-95
2023/03/23 10:05:32;;;;;;;5.65;4.28;;;14.60;1.00;;;;;;4956049;29;20559;-94
2023/03/23 10:08:00;;;;;;;5.73;4.10;;;14.60;1.00;;;;;;4955621;29;20197;-94
2023/03/23 10:10:37;;;;;;;7.63;5.40;;;14.60;1.00;;;;;;4958208;29;20205;-95
2023/03/23 10:13:12;;;;;;;8.27;5.30;;;14.50;1.00;;;;;;4952837;29;20190;-95
2023/03/23 10:15:41;;;;;;;8.53;4.90;;;14.40;1.00;;;;;;4939873;29;20669;-95
2023/03/23 10:18:15;;;;;;;6.13;3.90;;;14.40;99.90;;;;;;4939650;29;20220;-94
2023/03/23 10:20:49;;;;;;;7.67;4.23;;;14.50;99.90;;;;;;4940440;29;20191;-95
2023/03/23 10:23:51;;;;;;;5.23;4.00;;;14.60;99.90;;;;;;4956123;29;20235;-95
2023/03/23 10:26:29;;;;;;;6.03;4.23;;;14.70;99.90;;;;;;4940221;29;20593;-95
2023/03/23 10:28:59;;;;;;;5.63;3.90;;;14.90;99.90;;;;;;4953058;29;20204;-94
2023/03/23 10:31:31;;;;;;;6.93;4.67;;;15.20;99.90;;;;;;4946234;29;20284;-94
2023/03/23 10:34:03;;;;;;;6.55;4.38;;;15.50;99.90;;;;;;4948985;29;20200;-94
2023/03/23 10:36:36;;;;;;;7.43;3.95;;;15.60;99.90;;;;;;4958518;29;20241;-95
2023/03/23 10:39:09;;;;;;;10.38;5.60;;;15.60;99.90;;;;;;4959089;29;20558;-95
2023/03/23 10:41:36;;;;;;;10.43;7.38;;;15.60;99.90;;;;;;4958779;29;20189;-95
2023/03/23 10:44:10;;;;;;;21.00;12.30;;;15.60;99.90;;;;;;4942178;29;20202;-95
2023/03/23 10:46:49;;;;;;;9.55;5.93;;;15.50;99.90;;;;;;4939741;29;20278;-94
2023/03/23 10:49:21;;;;;;;18.58;11.98;;;15.60;99.90;;;;;;4951378;29;20663;-94
2023/03/23 10:51:59;;;;;;;13.30;8.73;;;15.70;99.90;;;;;;4958815;29;20214;-94
2023/03/23 10:54:33;;;;;;;10.98;7.72;;;15.80;99.90;;;;;;4958705;29;20192;-95
2023/03/23 10:57:00;;;;;;;13.30;6.13;;;15.90;99.90;;;;;;4956524;29;20260;-94
2023/03/23 10:59:29;;;;;;;6.88;5.55;;;15.90;99.90;;;;;;4939360;29;20208;-95
2023/03/23 11:01:59;;;;;;;11.43;7.10;;;15.90;99.90;;;;;;4939322;29;20215;-95
2023/03/23 11:04:27;;;;;;;10.35;7.45;;;16.00;99.90;;;;;;4952309;29;20212;-96
2023/03/23 11:07:00;;;;;;;15.05;7.97;;;16.20;99.90;;;;;;4958306;29;20652;-96
2023/03/23 11:09:36;;;;;;;13.40;6.82;;;16.40;99.90;;;;;;4958405;29;20299;-95
2023/03/23 11:12:03;;;;;;;9.18;5.45;;;16.60;99.90;;;;;;4958546;29;20184;-96
2023/03/23 11:14:32;;;;;;;8.00;6.18;;;16.80;99.90;;;;;;4944395;29;20705;-95
2023/03/23 11:17:01;;;;;;;4.95;4.32;;;16.90;29.00;;;;;;4939033;29;20231;-95
2023/03/23 11:19:31;;;;;;;4.30;3.67;;;16.70;1.00;;;;;;4938925;29;20219;-95
2023/03/23 11:22:09;;;;;;;5.50;4.60;;;16.60;1.00;;;;;;4938738;29;20295;-95
2023/03/23 11:24:40;;;;;;;6.90;3.60;;;16.50;30.50;;;;;;4938568;29;20642;-95
2023/03/23 11:27:09;;;;;;;4.95;3.90;;;16.50;1.00;;;;;;4938981;29;20188;-96
2023/03/23 11:29:38;;;;;;;5.07;4.10;;;16.50;1.00;;;;;;4953030;29;20223;-95
2023/03/23 11:32:07;;;;;;;8.15;4.75;;;16.50;1.00;;;;;;4939214;29;20204;-95
2023/03/23 11:34:36;;;;;;;4.97;4.00;;;16.60;1.00;;;;;;4950785;29;20193;-95
2023/03/23 11:37:08;;;;;;;4.93;4.07;;;16.60;1.00;;;;;;4957360;29;20243;-96
2023/03/23 11:39:48;;;;;;;4.63;3.42;;;16.70;1.00;;;;;;4957846;29;20196;-95
2023/03/23 11:42:21;;;;;;;3.88;3.42;;;16.80;1.00;;;;;;4957296;29;20564;-94
2023/03/23 11:44:47;;;;;;;4.70;3.53;;;16.90;1.00;;;;;;4957859;29;20195;-95
2023/03/23 11:47:23;;;;;;;5.07;3.60;;;17.00;1.00;;;;;;4957491;29;20197;-95
2023/03/23 11:49:59;;;;;;;5.55;3.70;;;17.20;1.00;;;;;;4957461;29;20236;-95
2023/03/23 11:52:33;;;;;;;9.40;3.20;;;17.30;1.00;;;;;;4957172;29;20200;-95
2023/03/23 11:55:05;;;;;;;4.30;3.40;;;17.40;1.00;;;;;;4957804;29;20184;-95
2023/03/23 11:57:32;;;;;;;5.13;3.50;;;17.40;99.90;;;;;;4957308;29;20220;-96
2023/03/23 12:00:00;;;;;;;5.45;3.38;;;17.50;99.90;;;;;;4957569;29;20614;-95
2023/03/23 12:02:41;;;;;;;4.55;3.15;;;17.50;99.90;;;;;;4938334;29;20251;-95
2023/03/23 12:05:31;;;;;;;7.38;3.78;;;17.40;99.90;;;;;;4938394;29;20185;-96
2023/03/23 12:08:34;;;;;;;4.50;3.50;;;17.30;99.90;;;;;;4955145;29;20208;-96
2023/03/23 12:11:09;;;;;;;3.22;2.75;;;17.30;99.90;;;;;;4957071;29;20263;-95
2023/03/23 12:14:01;;;;;;;6.30;3.08;;;17.20;99.90;;;;;;4957324;29;20199;-95
2023/03/23 12:16:44;;;;;;;5.53;3.50;;;17.20;99.90;;;;;;4947596;29;20223;-96
2023/03/23 12:19:18;;;;;;;4.00;3.08;;;17.20;99.90;;;;;;4938143;29;20195;-95
2023/03/23 12:21:55;;;;;;;4.78;3.67;;;17.30;99.90;;;;;;4944592;29;20181;-95
2023/03/23 12:24:36;;;;;;;4.93;3.38;;;17.40;99.90;;;;;;4953982;29;20203;-95
2023/03/23 12:27:10;;;;;;;4.10;3.10;;;17.30;99.90;;;;;;4937832;29;20187;-95
2023/03/23 12:30:03;;;;;;;10.38;7.32;;;17.30;99.90;;;;;;4951826;29;20188;-95
2023/03/23 12:32:55;;;;;;;4.22;3.35;;;17.30;99.90;;;;;;4956341;28;20268;-95
2023/03/23 12:35:34;;;;;;;2.90;2.50;;;17.20;99.90;;;;;;4860644;29;20724;-95
2023/03/23 12:38:16;;;;;;;6.53;3.70;;;17.10;99.90;;;;;;4843859;29;20347;-95
2023/03/23 12:40:58;;;;;;;4.85;3.20;;;17.00;99.90;;;;;;4842190;29;20204;-95
2023/03/23 12:43:32;;;;;;;4.85;2.70;;;16.90;99.90;;;;;;4854513;29;20210;-95
2023/03/23 12:46:17;;;;;;;2.60;2.30;;;16.80;99.90;;;;;;4858906;29;20596;-95
2023/03/23 12:48:47;;;;;;;3.72;2.13;;;16.80;99.90;;;;;;4847569;29;20195;-95
2023/03/23 12:51:23;;;;;;;3.33;2.15;;;16.70;99.90;;;;;;4860659;29;20208;-95
2023/03/23 12:53:57;;;;;;;3.58;2.40;;;16.70;99.90;;;;;;4860270;29;20245;-96
2023/03/23 12:56:32;;;;;;;10.75;2.97;;;16.80;99.90;;;;;;4860340;29;20195;-94
2023/03/23 12:59:08;;;;;;;3.65;2.35;;;16.80;99.90;;;;;;4860354;29;20609;-95
2023/03/23 13:01:39;;;;;;;8.38;4.30;;;16.70;99.90;;;;;;4860530;29;20698;-95
2023/03/23 13:04:11;;;;;;;3.53;2.25;;;16.60;99.90;;;;;;4858158;29;20720;-95
2023/03/23 13:06:40;;;;;;;2.90;2.30;;;16.50;99.90;;;;;;4848245;29;20214;-96